sensor_id;sensor_type;location;lat;lon;timestamp;P1;durP1;ratioP1;P2;durP2;ratioP2
11024;SDS011;22890;51.820;8.682;2022-07-06T00:01:31;1.97;;;1.17;;
11024;SDS011;22890;51.820;8.682;2022-07-06T00:03:58;3.00;;;1.00;;
11024;SDS011;22890;51.820;8.682;2022-07-06T00:06:25;1.73;;;1.00;;
11024;SDS011;22890;51.820;8.682;2022-07-06T00:08:51;1.40;;;1.00;;
11024;SDS011;22890;51.820;8.682;2022-07-06T00:11:18;2.10;;;1.27;;
11024;SDS011;22890;51.820;8.682;2022-07-06T00:13:45;4.53;;;1.13;;
11024;SDS011;22890;51.820;8.682;2022-07-06T00:16:11;2.30;;;1.20;;
11024;SDS011;22890;51.820;8.682;2022-07-06T00:18:38;1.03;;;0.90;;
11024;SDS011;22890;51.820;8.682;2022-07-06T00:21:05;3.13;;;1.10;;
11024;SDS011;22890;51.820;8.682;2022-07-06T00:23:32;1.70;;;1.03;;
11024;SDS011;22890;51.820;8.682;2022-07-06T00:25:59;2.27;;;2.07;;
11024;SDS011;22890;51.820;8.682;2022-07-06T00:28:26;3.03;;;1.20;;
11024;SDS011;22890;51.820;8.682;2022-07-06T00:30:53;1.20;;;1.10;;
11024;SDS011;22890;51.820;8.682;2022-07-06T00:33:20;3.83;;;1.13;;
11024;SDS011;22890;51.820;8.682;2022-07-06T00:35:47;6.67;;;1.10;;
11024;SDS011;22890;51.820;8.682;2022-07-06T00:38:14;2.43;;;1.10;;
11024;SDS011;22890;51.820;8.682;2022-07-06T00:40:41;2.03;;;1.47;;
11024;SDS011;22890;51.820;8.682;2022-07-06T00:43:07;4.13;;;1.10;;
11024;SDS011;22890;51.820;8.682;2022-07-06T00:45:34;6.27;;;1.20;;
11024;SDS011;22890;51.820;8.682;2022-07-06T00:48:01;1.00;;;1.00;;
11024;SDS011;22890;51.820;8.682;2022-07-06T00:50:27;3.13;;;1.03;;
11024;SDS011;22890;51.820;8.682;2022-07-06T00:52:55;2.17;;;1.20;;
11024;SDS011;22890;51.820;8.682;2022-07-06T00:55:26;2.80;;;1.33;;
11024;SDS011;22890;51.820;8.682;2022-07-06T00:57:54;1.10;;;0.83;;
11024;SDS011;22890;51.820;8.682;2022-07-06T01:00:23;1.33;;;1.23;;
11024;SDS011;22890;51.820;8.682;2022-07-06T01:02:51;3.20;;;1.10;;
11024;SDS011;22890;51.820;8.682;2022-07-06T01:05:18;2.70;;;1.20;;
11024;SDS011;22890;51.820;8.682;2022-07-06T01:07:45;1.47;;;1.27;;
11024;SDS011;22890;51.820;8.682;2022-07-06T01:10:14;5.27;;;1.37;;
11024;SDS011;22890;51.820;8.682;2022-07-06T01:12:43;1.87;;;1.30;;
11024;SDS011;22890;51.820;8.682;2022-07-06T01:15:12;1.27;;;1.17;;
11024;SDS011;22890;51.820;8.682;2022-07-06T01:17:43;1.63;;;1.10;;
11024;SDS011;22890;51.820;8.682;2022-07-06T01:20:11;1.80;;;1.40;;
11024;SDS011;22890;51.820;8.682;2022-07-06T01:22:38;1.43;;;1.00;;
11024;SDS011;22890;51.820;8.682;2022-07-06T01:25:05;1.27;;;1.10;;
11024;SDS011;22890;51.820;8.682;2022-07-06T01:27:37;4.47;;;1.53;;
11024;SDS011;22890;51.820;8.682;2022-07-06T01:30:14;2.93;;;1.70;;
11024;SDS011;22890;51.820;8.682;2022-07-06T01:32:42;1.53;;;1.23;;
11024;SDS011;22890;51.820;8.682;2022-07-06T01:35:11;1.60;;;1.50;;
11024;SDS011;22890;51.820;8.682;2022-07-06T01:37:39;2.80;;;1.13;;
11024;SDS011;22890;51.820;8.682;2022-07-06T01:40:07;4.23;;;1.70;;
11024;SDS011;22890;51.820;8.682;2022-07-06T01:42:35;1.43;;;1.00;;
11024;SDS011;22890;51.820;8.682;2022-07-06T01:45:03;2.40;;;1.43;;
11024;SDS011;22890;51.820;8.682;2022-07-06T01:47:30;1.40;;;1.13;;
11024;SDS011;22890;51.820;8.682;2022-07-06T01:49:59;2.67;;;1.30;;
11024;SDS011;22890;51.820;8.682;2022-07-06T01:52:27;1.90;;;1.37;;
11024;SDS011;22890;51.820;8.682;2022-07-06T01:54:55;1.73;;;1.30;;
11024;SDS011;22890;51.820;8.682;2022-07-06T01:57:22;3.17;;;1.67;;
11024;SDS011;22890;51.820;8.682;2022-07-06T01:59:49;4.70;;;1.73;;
11024;SDS011;22890;51.820;8.682;2022-07-06T02:02:15;3.73;;;1.57;;
11024;SDS011;22890;51.820;8.682;2022-07-06T02:04:43;3.13;;;1.30;;
11024;SDS011;22890;51.820;8.682;2022-07-06T02:07:10;6.10;;;1.83;;
11024;SDS011;22890;51.820;8.682;2022-07-06T02:09:36;2.43;;;1.57;;
11024;SDS011;22890;51.820;8.682;2022-07-06T02:12:03;1.67;;;1.13;;
11024;SDS011;22890;51.820;8.682;2022-07-06T02:14:30;2.77;;;1.90;;
11024;SDS011;22890;51.820;8.682;2022-07-06T02:16:57;4.90;;;1.90;;
11024;SDS011;22890;51.820;8.682;2022-07-06T02:19:24;4.07;;;1.77;;
11024;SDS011;22890;51.820;8.682;2022-07-06T02:21:50;3.30;;;1.60;;
11024;SDS011;22890;51.820;8.682;2022-07-06T02:24:17;1.73;;;1.63;;
11024;SDS011;22890;51.820;8.682;2022-07-06T02:26:44;5.00;;;1.87;;
11024;SDS011;22890;51.820;8.682;2022-07-06T02:29:10;3.70;;;1.93;;
11024;SDS011;22890;51.820;8.682;2022-07-06T02:31:37;3.03;;;2.23;;
11024;SDS011;22890;51.820;8.682;2022-07-06T02:34:03;1.73;;;1.50;;
11024;SDS011;22890;51.820;8.682;2022-07-06T02:36:30;2.17;;;1.70;;
11024;SDS011;22890;51.820;8.682;2022-07-06T02:38:57;4.57;;;1.60;;
11024;SDS011;22890;51.820;8.682;2022-07-06T02:41:23;6.40;;;2.63;;
11024;SDS011;22890;51.820;8.682;2022-07-06T02:43:50;3.33;;;1.50;;
11024;SDS011;22890;51.820;8.682;2022-07-06T02:46:17;3.57;;;1.93;;
11024;SDS011;22890;51.820;8.682;2022-07-06T02:48:43;3.10;;;1.73;;
11024;SDS011;22890;51.820;8.682;2022-07-06T02:51:10;5.77;;;2.07;;
11024;SDS011;22890;51.820;8.682;2022-07-06T02:53:37;2.60;;;2.10;;
11024;SDS011;22890;51.820;8.682;2022-07-06T02:56:03;2.80;;;2.17;;
11024;SDS011;22890;51.820;8.682;2022-07-06T02:58:30;3.00;;;1.80;;
11024;SDS011;22890;51.820;8.682;2022-07-06T03:00:57;7.07;;;1.80;;
11024;SDS011;22890;51.820;8.682;2022-07-06T03:03:23;4.17;;;1.90;;
11024;SDS011;22890;51.820;8.682;2022-07-06T03:05:50;3.67;;;1.90;;
11024;SDS011;22890;51.820;8.682;2022-07-06T03:08:17;5.50;;;2.10;;
11024;SDS011;22890;51.820;8.682;2022-07-06T03:10:44;3.03;;;2.07;;
11024;SDS011;22890;51.820;8.682;2022-07-06T03:13:10;4.87;;;2.30;;
11024;SDS011;22890;51.820;8.682;2022-07-06T03:15:37;3.10;;;1.90;;
11024;SDS011;22890;51.820;8.682;2022-07-06T03:18:04;3.07;;;2.13;;
11024;SDS011;22890;51.820;8.682;2022-07-06T03:20:30;3.20;;;2.10;;
11024;SDS011;22890;51.820;8.682;2022-07-06T03:22:57;4.27;;;2.23;;
11024;SDS011;22890;51.820;8.682;2022-07-06T03:25:24;2.83;;;1.97;;
11024;SDS011;22890;51.820;8.682;2022-07-06T03:27:50;5.53;;;2.63;;
11024;SDS011;22890;51.820;8.682;2022-07-06T03:30:17;3.67;;;2.17;;
11024;SDS011;22890;51.820;8.682;2022-07-06T03:32:44;6.27;;;2.20;;
11024;SDS011;22890;51.820;8.682;2022-07-06T03:35:10;7.93;;;2.23;;
11024;SDS011;22890;51.820;8.682;2022-07-06T03:37:37;3.67;;;2.17;;
11024;SDS011;22890;51.820;8.682;2022-07-06T03:40:04;3.40;;;2.10;;
11024;SDS011;22890;51.820;8.682;2022-07-06T03:42:31;4.20;;;2.13;;
11024;SDS011;22890;51.820;8.682;2022-07-06T03:44:57;3.33;;;2.20;;
11024;SDS011;22890;51.820;8.682;2022-07-06T03:47:24;4.47;;;1.97;;
11024;SDS011;22890;51.820;8.682;2022-07-06T03:49:51;3.87;;;2.37;;
11024;SDS011;22890;51.820;8.682;2022-07-06T03:52:17;5.20;;;2.40;;
11024;SDS011;22890;51.820;8.682;2022-07-06T03:54:44;2.33;;;2.03;;
11024;SDS011;22890;51.820;8.682;2022-07-06T03:57:11;7.23;;;2.17;;
11024;SDS011;22890;51.820;8.682;2022-07-06T03:59:39;3.80;;;2.20;;
11024;SDS011;22890;51.820;8.682;2022-07-06T04:02:06;4.70;;;2.37;;
11024;SDS011;22890;51.820;8.682;2022-07-06T04:04:33;3.53;;;2.47;;
11024;SDS011;22890;51.820;8.682;2022-07-06T04:07:00;6.63;;;2.27;;
11024;SDS011;22890;51.820;8.682;2022-07-06T04:09:27;3.27;;;2.30;;
11024;SDS011;22890;51.820;8.682;2022-07-06T04:11:53;6.30;;;2.33;;
11024;SDS011;22890;51.820;8.682;2022-07-06T04:14:20;4.53;;;2.27;;
11024;SDS011;22890;51.820;8.682;2022-07-06T04:16:46;4.53;;;2.30;;
11024;SDS011;22890;51.820;8.682;2022-07-06T04:19:13;3.33;;;2.00;;
11024;SDS011;22890;51.820;8.682;2022-07-06T04:21:40;7.10;;;2.23;;
11024;SDS011;22890;51.820;8.682;2022-07-06T04:24:07;2.73;;;2.10;;
11024;SDS011;22890;51.820;8.682;2022-07-06T04:26:34;5.47;;;2.50;;
11024;SDS011;22890;51.820;8.682;2022-07-06T04:29:01;4.17;;;2.73;;
11024;SDS011;22890;51.820;8.682;2022-07-06T04:31:28;2.67;;;2.40;;
11024;SDS011;22890;51.820;8.682;2022-07-06T04:33:54;2.23;;;2.03;;
11024;SDS011;22890;51.820;8.682;2022-07-06T04:36:21;2.80;;;2.20;;
11024;SDS011;22890;51.820;8.682;2022-07-06T04:38:48;3.93;;;2.20;;
11024;SDS011;22890;51.820;8.682;2022-07-06T04:41:14;3.23;;;2.33;;
11024;SDS011;22890;51.820;8.682;2022-07-06T04:43:41;2.73;;;2.13;;
11024;SDS011;22890;51.820;8.682;2022-07-06T04:46:10;4.13;;;2.57;;
11024;SDS011;22890;51.820;8.682;2022-07-06T04:48:36;7.27;;;2.20;;
11024;SDS011;22890;51.820;8.682;2022-07-06T04:51:05;5.60;;;2.40;;
11024;SDS011;22890;51.820;8.682;2022-07-06T04:53:32;2.37;;;2.10;;
11024;SDS011;22890;51.820;8.682;2022-07-06T04:55:58;5.60;;;2.17;;
11024;SDS011;22890;51.820;8.682;2022-07-06T04:58:25;5.77;;;2.50;;
11024;SDS011;22890;51.820;8.682;2022-07-06T05:00:52;6.63;;;2.13;;
11024;SDS011;22890;51.820;8.682;2022-07-06T05:03:20;4.43;;;2.00;;
11024;SDS011;22890;51.820;8.682;2022-07-06T05:05:47;2.83;;;1.90;;
11024;SDS011;22890;51.820;8.682;2022-07-06T05:08:13;4.73;;;2.20;;
11024;SDS011;22890;51.820;8.682;2022-07-06T05:10:40;3.97;;;2.60;;
11024;SDS011;22890;51.820;8.682;2022-07-06T05:13:06;6.37;;;2.53;;
11024;SDS011;22890;51.820;8.682;2022-07-06T05:15:33;3.40;;;2.60;;
11024;SDS011;22890;51.820;8.682;2022-07-06T05:18:00;5.00;;;2.70;;
11024;SDS011;22890;51.820;8.682;2022-07-06T05:20:26;9.30;;;3.03;;
11024;SDS011;22890;51.820;8.682;2022-07-06T05:22:53;5.77;;;2.60;;
11024;SDS011;22890;51.820;8.682;2022-07-06T05:25:20;3.77;;;2.20;;
11024;SDS011;22890;51.820;8.682;2022-07-06T05:27:47;3.00;;;2.43;;
11024;SDS011;22890;51.820;8.682;2022-07-06T05:30:14;4.63;;;2.80;;
11024;SDS011;22890;51.820;8.682;2022-07-06T05:32:41;2.90;;;2.10;;
11024;SDS011;22890;51.820;8.682;2022-07-06T05:35:08;4.87;;;2.10;;
11024;SDS011;22890;51.820;8.682;2022-07-06T05:37:55;4.33;;;2.00;;
11024;SDS011;22890;51.820;8.682;2022-07-06T05:40:22;2.73;;;1.90;;
11024;SDS011;22890;51.820;8.682;2022-07-06T05:42:48;4.87;;;1.80;;
11024;SDS011;22890;51.820;8.682;2022-07-06T05:45:15;5.83;;;1.97;;
11024;SDS011;22890;51.820;8.682;2022-07-06T05:47:42;4.87;;;1.93;;
11024;SDS011;22890;51.820;8.682;2022-07-06T05:50:27;7.27;;;2.10;;
11024;SDS011;22890;51.820;8.682;2022-07-06T05:52:58;5.30;;;1.93;;
11024;SDS011;22890;51.820;8.682;2022-07-06T05:55:40;3.10;;;2.00;;
11024;SDS011;22890;51.820;8.682;2022-07-06T05:58:07;1.90;;;1.50;;
11024;SDS011;22890;51.820;8.682;2022-07-06T06:00:34;3.37;;;1.53;;
11024;SDS011;22890;51.820;8.682;2022-07-06T06:03:00;2.73;;;1.37;;
11024;SDS011;22890;51.820;8.682;2022-07-06T06:05:27;2.13;;;1.33;;
11024;SDS011;22890;51.820;8.682;2022-07-06T06:07:54;3.70;;;1.40;;
11024;SDS011;22890;51.820;8.682;2022-07-06T06:10:20;3.27;;;1.63;;
11024;SDS011;22890;51.820;8.682;2022-07-06T06:12:50;3.00;;;1.67;;
11024;SDS011;22890;51.820;8.682;2022-07-06T06:15:17;2.60;;;1.40;;
11024;SDS011;22890;51.820;8.682;2022-07-06T06:17:44;2.77;;;1.43;;
11024;SDS011;22890;51.820;8.682;2022-07-06T06:20:11;3.27;;;1.20;;
11024;SDS011;22890;51.820;8.682;2022-07-06T06:25:18;4.17;;;1.40;;
11024;SDS011;22890;51.820;8.682;2022-07-06T06:27:46;5.43;;;1.50;;
11024;SDS011;22890;51.820;8.682;2022-07-06T06:30:13;2.80;;;1.37;;
11024;SDS011;22890;51.820;8.682;2022-07-06T06:32:40;3.07;;;1.00;;
11024;SDS011;22890;51.820;8.682;2022-07-06T06:35:07;2.53;;;1.27;;
11024;SDS011;22890;51.820;8.682;2022-07-06T06:37:33;4.30;;;1.30;;
11024;SDS011;22890;51.820;8.682;2022-07-06T06:40:00;3.63;;;1.43;;
11024;SDS011;22890;51.820;8.682;2022-07-06T06:42:27;3.53;;;1.57;;
11024;SDS011;22890;51.820;8.682;2022-07-06T06:44:54;4.63;;;1.57;;
11024;SDS011;22890;51.820;8.682;2022-07-06T06:47:21;2.80;;;1.30;;
11024;SDS011;22890;51.820;8.682;2022-07-06T06:49:47;5.90;;;1.70;;
11024;SDS011;22890;51.820;8.682;2022-07-06T06:52:14;2.93;;;1.63;;
11024;SDS011;22890;51.820;8.682;2022-07-06T06:55:01;4.27;;;1.30;;
11024;SDS011;22890;51.820;8.682;2022-07-06T06:57:27;5.00;;;1.20;;
11024;SDS011;22890;51.820;8.682;2022-07-06T06:59:55;3.93;;;1.40;;
11024;SDS011;22890;51.820;8.682;2022-07-06T07:02:23;2.27;;;1.40;;
11024;SDS011;22890;51.820;8.682;2022-07-06T07:04:50;5.47;;;2.13;;
11024;SDS011;22890;51.820;8.682;2022-07-06T07:07:17;3.60;;;1.17;;
11024;SDS011;22890;51.820;8.682;2022-07-06T07:09:43;3.20;;;1.20;;
11024;SDS011;22890;51.820;8.682;2022-07-06T07:12:10;6.40;;;1.37;;
11024;SDS011;22890;51.820;8.682;2022-07-06T07:14:38;3.40;;;1.43;;
11024;SDS011;22890;51.820;8.682;2022-07-06T07:17:04;3.43;;;1.20;;
11024;SDS011;22890;51.820;8.682;2022-07-06T07:19:31;3.50;;;1.20;;
11024;SDS011;22890;51.820;8.682;2022-07-06T07:21:57;1.60;;;1.47;;
11024;SDS011;22890;51.820;8.682;2022-07-06T07:24:24;2.40;;;1.20;;
11024;SDS011;22890;51.820;8.682;2022-07-06T07:26:51;3.13;;;1.30;;
11024;SDS011;22890;51.820;8.682;2022-07-06T07:29:17;2.87;;;1.40;;
11024;SDS011;22890;51.820;8.682;2022-07-06T07:31:44;2.90;;;1.30;;
11024;SDS011;22890;51.820;8.682;2022-07-06T07:34:11;2.33;;;1.40;;
11024;SDS011;22890;51.820;8.682;2022-07-06T07:36:37;10.80;;;1.57;;
11024;SDS011;22890;51.820;8.682;2022-07-06T07:39:04;2.13;;;1.23;;
11024;SDS011;22890;51.820;8.682;2022-07-06T07:41:30;2.07;;;1.33;;
11024;SDS011;22890;51.820;8.682;2022-07-06T07:43:57;3.80;;;1.30;;
11024;SDS011;22890;51.820;8.682;2022-07-06T07:46:24;3.07;;;1.33;;
11024;SDS011;22890;51.820;8.682;2022-07-06T07:48:50;3.30;;;1.30;;
11024;SDS011;22890;51.820;8.682;2022-07-06T07:51:17;7.97;;;1.27;;
11024;SDS011;22890;51.820;8.682;2022-07-06T07:53:45;4.77;;;1.50;;
11024;SDS011;22890;51.820;8.682;2022-07-06T07:56:12;4.77;;;1.73;;
11024;SDS011;22890;51.820;8.682;2022-07-06T07:58:38;4.63;;;1.10;;
11024;SDS011;22890;51.820;8.682;2022-07-06T08:01:05;2.53;;;1.10;;
11024;SDS011;22890;51.820;8.682;2022-07-06T08:03:32;3.10;;;1.03;;
11024;SDS011;22890;51.820;8.682;2022-07-06T08:05:59;4.10;;;1.30;;
11024;SDS011;22890;51.820;8.682;2022-07-06T08:08:25;3.03;;;1.20;;
11024;SDS011;22890;51.820;8.682;2022-07-06T08:10:53;2.93;;;1.37;;
11024;SDS011;22890;51.820;8.682;2022-07-06T08:13:40;2.73;;;1.03;;
11024;SDS011;22890;51.820;8.682;2022-07-06T08:16:06;4.33;;;1.20;;
11024;SDS011;22890;51.820;8.682;2022-07-06T08:18:34;3.27;;;1.17;;
11024;SDS011;22890;51.820;8.682;2022-07-06T08:21:02;2.77;;;1.00;;
11024;SDS011;22890;51.820;8.682;2022-07-06T08:23:49;3.83;;;1.10;;
11024;SDS011;22890;51.820;8.682;2022-07-06T08:26:15;5.17;;;1.10;;
11024;SDS011;22890;51.820;8.682;2022-07-06T08:28:43;5.50;;;1.17;;
11024;SDS011;22890;51.820;8.682;2022-07-06T08:31:10;3.90;;;0.93;;
11024;SDS011;22890;51.820;8.682;2022-07-06T08:33:57;3.23;;;0.87;;
11024;SDS011;22890;51.820;8.682;2022-07-06T08:36:23;3.77;;;1.00;;
11024;SDS011;22890;51.820;8.682;2022-07-06T08:38:50;1.67;;;0.90;;
11024;SDS011;22890;51.820;8.682;2022-07-06T08:41:17;6.57;;;1.47;;
11024;SDS011;22890;51.820;8.682;2022-07-06T08:43:51;2.60;;;1.40;;
11024;SDS011;22890;51.820;8.682;2022-07-06T08:46:19;3.93;;;1.20;;
11024;SDS011;22890;51.820;8.682;2022-07-06T08:48:47;1.73;;;1.00;;
11024;SDS011;22890;51.820;8.682;2022-07-06T08:51:14;1.17;;;0.90;;
11024;SDS011;22890;51.820;8.682;2022-07-06T08:53:41;4.63;;;0.80;;
11024;SDS011;22890;51.820;8.682;2022-07-06T08:56:09;4.40;;;1.20;;
11024;SDS011;22890;51.820;8.682;2022-07-06T08:58:35;5.53;;;1.40;;
11024;SDS011;22890;51.820;8.682;2022-07-06T09:01:02;2.53;;;0.87;;
11024;SDS011;22890;51.820;8.682;2022-07-06T09:03:29;4.97;;;1.10;;
11024;SDS011;22890;51.820;8.682;2022-07-06T09:05:58;2.60;;;1.33;;
11024;SDS011;22890;51.820;8.682;2022-07-06T09:08:27;2.93;;;1.30;;
11024;SDS011;22890;51.820;8.682;2022-07-06T09:10:56;1.30;;;0.60;;
11024;SDS011;22890;51.820;8.682;2022-07-06T09:13:23;2.20;;;0.90;;
11024;SDS011;22890;51.820;8.682;2022-07-06T09:15:50;2.03;;;0.70;;
11024;SDS011;22890;51.820;8.682;2022-07-06T09:18:31;6.60;;;1.03;;
11024;SDS011;22890;51.820;8.682;2022-07-06T09:21:03;1.63;;;0.60;;
11024;SDS011;22890;51.820;8.682;2022-07-06T09:23:32;2.97;;;1.00;;
11024;SDS011;22890;51.820;8.682;2022-07-06T09:26:01;2.70;;;0.70;;
11024;SDS011;22890;51.820;8.682;2022-07-06T09:28:42;4.67;;;1.23;;
11024;SDS011;22890;51.820;8.682;2022-07-06T09:31:10;2.30;;;0.90;;
11024;SDS011;22890;51.820;8.682;2022-07-06T09:36:41;1.60;;;0.80;;
11024;SDS011;22890;51.820;8.682;2022-07-06T09:39:14;1.27;;;0.77;;
11024;SDS011;22890;51.820;8.682;2022-07-06T09:41:48;2.40;;;0.70;;
11024;SDS011;22890;51.820;8.682;2022-07-06T09:46:50;2.17;;;0.93;;
11024;SDS011;22890;51.820;8.682;2022-07-06T09:49:18;3.50;;;0.87;;
11024;SDS011;22890;51.820;8.682;2022-07-06T09:51:47;1.43;;;0.60;;
11024;SDS011;22890;51.820;8.682;2022-07-06T09:54:16;3.43;;;0.80;;
11024;SDS011;22890;51.820;8.682;2022-07-06T09:56:43;1.97;;;0.70;;
11024;SDS011;22890;51.820;8.682;2022-07-06T09:59:17;3.43;;;0.67;;
11024;SDS011;22890;51.820;8.682;2022-07-06T10:01:47;1.23;;;0.80;;
11024;SDS011;22890;51.820;8.682;2022-07-06T10:04:18;0.97;;;0.60;;
11024;SDS011;22890;51.820;8.682;2022-07-06T10:06:46;2.10;;;0.83;;
11024;SDS011;22890;51.820;8.682;2022-07-06T10:09:14;3.20;;;0.67;;
11024;SDS011;22890;51.820;8.682;2022-07-06T10:11:47;6.40;;;1.00;;
11024;SDS011;22890;51.820;8.682;2022-07-06T10:14:32;4.20;;;0.70;;
11024;SDS011;22890;51.820;8.682;2022-07-06T10:17:00;2.57;;;0.60;;
11024;SDS011;22890;51.820;8.682;2022-07-06T10:19:28;1.77;;;0.70;;
11024;SDS011;22890;51.820;8.682;2022-07-06T10:21:56;3.60;;;0.60;;
11024;SDS011;22890;51.820;8.682;2022-07-06T10:24:25;5.40;;;1.20;;
11024;SDS011;22890;51.820;8.682;2022-07-06T10:26:53;3.63;;;0.90;;
11024;SDS011;22890;51.820;8.682;2022-07-06T10:29:21;25.53;;;2.97;;
11024;SDS011;22890;51.820;8.682;2022-07-06T10:31:49;3.63;;;0.97;;
11024;SDS011;22890;51.820;8.682;2022-07-06T10:34:17;5.13;;;0.97;;
11024;SDS011;22890;51.820;8.682;2022-07-06T10:36:48;3.97;;;0.80;;
11024;SDS011;22890;51.820;8.682;2022-07-06T10:39:33;1.13;;;0.67;;
11024;SDS011;22890;51.820;8.682;2022-07-06T10:45:10;3.17;;;1.10;;
11024;SDS011;22890;51.820;8.682;2022-07-06T10:47:39;2.47;;;1.07;;
11024;SDS011;22890;51.820;8.682;2022-07-06T10:50:07;4.63;;;1.00;;
11024;SDS011;22890;51.820;8.682;2022-07-06T10:52:48;1.90;;;1.00;;
11024;SDS011;22890;51.820;8.682;2022-07-06T10:55:27;4.00;;;0.93;;
11024;SDS011;22890;51.820;8.682;2022-07-06T10:57:56;3.87;;;1.20;;
11024;SDS011;22890;51.820;8.682;2022-07-06T11:00:22;7.13;;;1.00;;
11024;SDS011;22890;51.820;8.682;2022-07-06T11:02:49;5.73;;;1.27;;
11024;SDS011;22890;51.820;8.682;2022-07-06T11:14:00;2.73;;;0.87;;
11024;SDS011;22890;51.820;8.682;2022-07-06T11:19:14;1.93;;;0.97;;
11024;SDS011;22890;51.820;8.682;2022-07-06T11:21:55;5.83;;;1.23;;
11024;SDS011;22890;51.820;8.682;2022-07-06T11:24:32;3.40;;;1.20;;
11024;SDS011;22890;51.820;8.682;2022-07-06T11:27:00;1.93;;;0.77;;
11024;SDS011;22890;51.820;8.682;2022-07-06T11:29:27;3.83;;;0.90;;
11024;SDS011;22890;51.820;8.682;2022-07-06T11:31:56;4.40;;;1.37;;
11024;SDS011;22890;51.820;8.682;2022-07-06T11:34:26;2.60;;;1.10;;
11024;SDS011;22890;51.820;8.682;2022-07-06T11:36:57;4.90;;;1.67;;
11024;SDS011;22890;51.820;8.682;2022-07-06T11:39:37;2.40;;;1.00;;
11024;SDS011;22890;51.820;8.682;2022-07-06T11:42:12;2.10;;;1.00;;
11024;SDS011;22890;51.820;8.682;2022-07-06T11:44:41;4.40;;;1.17;;
11024;SDS011;22890;51.820;8.682;2022-07-06T11:47:09;4.50;;;1.10;;
11024;SDS011;22890;51.820;8.682;2022-07-06T11:49:37;4.33;;;1.10;;
11024;SDS011;22890;51.820;8.682;2022-07-06T11:52:14;1.90;;;1.10;;
11024;SDS011;22890;51.820;8.682;2022-07-06T11:54:41;3.83;;;0.80;;
11024;SDS011;22890;51.820;8.682;2022-07-06T11:57:10;2.93;;;0.97;;
11024;SDS011;22890;51.820;8.682;2022-07-06T11:59:38;1.37;;;0.90;;
11024;SDS011;22890;51.820;8.682;2022-07-06T12:02:09;6.53;;;1.20;;
11024;SDS011;22890;51.820;8.682;2022-07-06T12:04:38;1.70;;;0.80;;
11024;SDS011;22890;51.820;8.682;2022-07-06T12:07:07;2.23;;;0.73;;
11024;SDS011;22890;51.820;8.682;2022-07-06T12:09:36;2.07;;;0.67;;
11024;SDS011;22890;51.820;8.682;2022-07-06T12:12:04;3.60;;;0.70;;
11024;SDS011;22890;51.820;8.682;2022-07-06T12:14:33;6.13;;;1.03;;
11024;SDS011;22890;51.820;8.682;2022-07-06T12:17:05;3.47;;;0.80;;
11024;SDS011;22890;51.820;8.682;2022-07-06T12:19:34;2.63;;;0.70;;
11024;SDS011;22890;51.820;8.682;2022-07-06T12:22:01;1.43;;;0.60;;
11024;SDS011;22890;51.820;8.682;2022-07-06T12:24:30;3.00;;;0.90;;
11024;SDS011;22890;51.820;8.682;2022-07-06T12:26:59;2.00;;;0.53;;
11024;SDS011;22890;51.820;8.682;2022-07-06T12:29:38;2.00;;;0.77;;
11024;SDS011;22890;51.820;8.682;2022-07-06T12:32:05;6.67;;;0.70;;
11024;SDS011;22890;51.820;8.682;2022-07-06T12:34:32;4.50;;;0.80;;
11024;SDS011;22890;51.820;8.682;2022-07-06T12:37:07;1.23;;;0.60;;
11024;SDS011;22890;51.820;8.682;2022-07-06T12:39:43;1.90;;;0.70;;
11024;SDS011;22890;51.820;8.682;2022-07-06T12:42:13;1.90;;;0.67;;
11024;SDS011;22890;51.820;8.682;2022-07-06T12:44:47;1.20;;;0.50;;
11024;SDS011;22890;51.820;8.682;2022-07-06T12:47:21;1.03;;;0.57;;
11024;SDS011;22890;51.820;8.682;2022-07-06T12:50:09;3.30;;;0.60;;
11024;SDS011;22890;51.820;8.682;2022-07-06T12:52:37;1.20;;;0.43;;
11024;SDS011;22890;51.820;8.682;2022-07-06T12:55:05;1.40;;;0.50;;
11024;SDS011;22890;51.820;8.682;2022-07-06T12:57:47;2.47;;;0.87;;
11024;SDS011;22890;51.820;8.682;2022-07-06T13:00:15;2.07;;;0.60;;
11024;SDS011;22890;51.820;8.682;2022-07-06T13:02:46;0.73;;;0.43;;
11024;SDS011;22890;51.820;8.682;2022-07-06T13:05:34;3.63;;;0.67;;
11024;SDS011;22890;51.820;8.682;2022-07-06T13:08:03;0.97;;;0.40;;
11024;SDS011;22890;51.820;8.682;2022-07-06T13:10:29;0.50;;;0.43;;
11024;SDS011;22890;51.820;8.682;2022-07-06T13:13:01;1.70;;;0.40;;
11024;SDS011;22890;51.820;8.682;2022-07-06T13:15:28;2.00;;;0.80;;
11024;SDS011;22890;51.820;8.682;2022-07-06T13:17:54;0.93;;;0.50;;
11024;SDS011;22890;51.820;8.682;2022-07-06T13:20:21;2.30;;;0.80;;
11024;SDS011;22890;51.820;8.682;2022-07-06T13:22:48;2.47;;;0.70;;
11024;SDS011;22890;51.820;8.682;2022-07-06T13:25:14;6.33;;;1.03;;
11024;SDS011;22890;51.820;8.682;2022-07-06T13:27:41;2.37;;;0.80;;
11024;SDS011;22890;51.820;8.682;2022-07-06T13:30:08;2.27;;;0.57;;
11024;SDS011;22890;51.820;8.682;2022-07-06T13:32:36;5.20;;;0.60;;
11024;SDS011;22890;51.820;8.682;2022-07-06T13:35:03;1.17;;;0.50;;
11024;SDS011;22890;51.820;8.682;2022-07-06T13:37:30;2.13;;;0.37;;
11024;SDS011;22890;51.820;8.682;2022-07-06T13:39:56;3.03;;;0.97;;
11024;SDS011;22890;51.820;8.682;2022-07-06T13:42:23;0.60;;;0.40;;
11024;SDS011;22890;51.820;8.682;2022-07-06T13:44:49;1.90;;;0.53;;
11024;SDS011;22890;51.820;8.682;2022-07-06T13:47:16;2.17;;;0.67;;
11024;SDS011;22890;51.820;8.682;2022-07-06T13:49:43;1.37;;;0.53;;
11024;SDS011;22890;51.820;8.682;2022-07-06T13:52:13;1.50;;;0.50;;
11024;SDS011;22890;51.820;8.682;2022-07-06T13:54:40;3.17;;;0.80;;
11024;SDS011;22890;51.820;8.682;2022-07-06T13:57:06;1.03;;;0.50;;
11024;SDS011;22890;51.820;8.682;2022-07-06T13:59:33;1.87;;;0.60;;
11024;SDS011;22890;51.820;8.682;2022-07-06T14:02:00;2.53;;;0.70;;
11024;SDS011;22890;51.820;8.682;2022-07-06T14:04:27;2.33;;;0.40;;
11024;SDS011;22890;51.820;8.682;2022-07-06T14:06:54;3.43;;;0.43;;
11024;SDS011;22890;51.820;8.682;2022-07-06T14:09:20;1.13;;;0.40;;
11024;SDS011;22890;51.820;8.682;2022-07-06T14:11:47;3.23;;;0.53;;
11024;SDS011;22890;51.820;8.682;2022-07-06T14:14:14;3.20;;;0.57;;
11024;SDS011;22890;51.820;8.682;2022-07-06T14:16:40;2.20;;;0.60;;
11024;SDS011;22890;51.820;8.682;2022-07-06T14:19:07;2.33;;;0.70;;
11024;SDS011;22890;51.820;8.682;2022-07-06T14:21:34;0.30;;;0.30;;
11024;SDS011;22890;51.820;8.682;2022-07-06T14:24:01;1.23;;;0.40;;
11024;SDS011;22890;51.820;8.682;2022-07-06T14:26:28;4.40;;;0.50;;
11024;SDS011;22890;51.820;8.682;2022-07-06T14:28:55;1.20;;;0.40;;
11024;SDS011;22890;51.820;8.682;2022-07-06T14:31:21;5.07;;;0.67;;
11024;SDS011;22890;51.820;8.682;2022-07-06T14:33:49;1.60;;;0.67;;
11024;SDS011;22890;51.820;8.682;2022-07-06T14:36:16;2.67;;;0.67;;
11024;SDS011;22890;51.820;8.682;2022-07-06T14:38:43;1.77;;;0.60;;
11024;SDS011;22890;51.820;8.682;2022-07-06T14:41:09;5.40;;;0.80;;
11024;SDS011;22890;51.820;8.682;2022-07-06T14:43:36;1.00;;;0.47;;
11024;SDS011;22890;51.820;8.682;2022-07-06T14:46:03;1.60;;;0.50;;
11024;SDS011;22890;51.820;8.682;2022-07-06T14:48:30;1.03;;;0.63;;
11024;SDS011;22890;51.820;8.682;2022-07-06T14:50:57;1.47;;;0.70;;
11024;SDS011;22890;51.820;8.682;2022-07-06T14:53:24;1.80;;;0.60;;
11024;SDS011;22890;51.820;8.682;2022-07-06T14:55:51;5.77;;;0.70;;
11024;SDS011;22890;51.820;8.682;2022-07-06T14:58:19;4.90;;;0.60;;
11024;SDS011;22890;51.820;8.682;2022-07-06T15:00:45;2.67;;;0.80;;
11024;SDS011;22890;51.820;8.682;2022-07-06T15:03:20;2.03;;;0.50;;
11024;SDS011;22890;51.820;8.682;2022-07-06T15:05:48;1.70;;;0.50;;
11024;SDS011;22890;51.820;8.682;2022-07-06T15:08:14;1.03;;;0.43;;
11024;SDS011;22890;51.820;8.682;2022-07-06T15:10:42;1.10;;;0.40;;
11024;SDS011;22890;51.820;8.682;2022-07-06T15:13:08;0.47;;;0.30;;
11024;SDS011;22890;51.820;8.682;2022-07-06T15:15:36;1.70;;;0.43;;
11024;SDS011;22890;51.820;8.682;2022-07-06T15:18:23;1.83;;;0.50;;